Time;durP1;ratioP1;P1;durP2;ratioP2;P2;SDS_P1;SDS_P2;PMS_P1;PMS_P2;Temp;Humidity;BMP_temperature;BMP_pressure;BME280_temperature;BME280_humidity;BME280_pressure;Samples;Min_cycle;Max_cycle;Signal;HPM_P1;HPM_P2
2022/03/03 00:01:01;;;;;;;5.80;2.17;;;;;;;10.20;70.49;100811.31;2059557;28;20091;-81
2022/03/03 00:02:23;;;;;;;3.20;1.40;;;;;;;10.19;70.28;100820.97;2078324;28;20060;-81
2022/03/03 00:03:45;;;;;;;;;;;;;;;10.24;70.60;100816.66;2060024;28;20066;-81
2022/03/03 00:05:09;;;;;;;13.00;3.63;;;;;;;10.23;70.84;100812.28;2075674;28;20020;-81
2022/03/03 00:06:32;;;;;;;4.63;2.13;;;;;;;10.26;71.42;100825.50;2071665;28;20041;-81
2022/03/03 00:07:53;;;;;;;12.60;2.05;;;;;;;10.26;71.01;100820.22;2061821;28;20046;-80
2022/03/03 00:09:15;;;;;;;5.40;2.30;;;;;;;10.27;71.36;100807.94;2071639;28;20057;-81
2022/03/03 00:10:38;;;;;;;14.63;2.90;;;;;;;10.27;70.90;100827.28;2063979;28;20137;-80
2022/03/03 00:11:59;;;;;;;7.15;2.35;;;;;;;10.28;71.64;100825.53;2059443;28;20100;-80
2022/03/03 00:13:22;;;;;;;9.20;2.30;;;;;;;10.29;71.98;100822.03;2069434;28;20081;-80
2022/03/03 00:14:46;;;;;;;7.20;2.40;;;;;;;10.30;71.64;100814.16;2061531;28;20137;-80
2022/03/03 00:16:09;;;;;;;10.23;1.92;;;;;;;10.25;71.01;100826.38;2062099;28;20514;-80
2022/03/03 00:17:30;;;;;;;6.15;1.80;;;;;;;10.24;71.01;100827.22;2068399;28;20054;-80
2022/03/03 00:18:53;;;;;;;8.65;1.98;;;;;;;10.21;70.17;100808.72;2059953;28;20186;-81
2022/03/03 00:20:15;;;;;;;9.00;2.22;;;;;;;10.19;70.00;100828.00;2056117;28;20034;-80
2022/03/03 00:21:37;;;;;;;9.07;2.38;;;;;;;10.19;70.68;100828.00;2062089;28;20527;-80
2022/03/03 00:23:00;;;;;;;7.28;1.77;;;;;;;10.17;70.70;100827.09;2053392;28;20567;-80
2022/03/03 00:24:22;;;;;;;6.68;2.35;;;;;;;10.16;71.53;100830.56;2057161;28;20081;-79
2022/03/03 00:25:44;;;;;;;5.80;1.77;;;;;;;10.13;71.14;100834.03;2061960;28;20046;-81
2022/03/03 00:27:07;;;;;;;7.70;2.70;;;;;;;10.14;71.26;100833.16;2066349;28;20050;-80
2022/03/03 00:28:29;;;;;;;11.55;2.50;;;;;;;10.14;70.42;100816.44;2069022;28;20053;-81
2022/03/03 00:29:53;;;;;;;10.60;3.30;;;;;;;10.11;70.13;100821.69;2070079;28;20050;-81
2022/03/03 00:31:15;;;;;;;5.38;1.75;;;;;;;10.06;70.38;100825.97;2053645;28;20039;-80
2022/03/03 00:32:40;;;;;;;6.05;2.10;;;;;;;9.87;70.90;100830.00;2054497;28;20045;-80
2022/03/03 00:34:01;;;;;;;11.77;2.55;;;;;;;9.94;70.65;100834.53;2070666;28;20049;-81
2022/03/03 00:35:25;;;;;;;8.05;2.75;;;;;;;9.96;70.62;100843.38;2069712;28;20054;-80
2022/03/03 00:36:46;;;;;;;10.02;2.80;;;;;;;9.96;70.42;100833.72;2065255;28;20050;-80
2022/03/03 00:38:10;;;;;;;8.52;2.28;;;;;;;9.95;70.22;100829.31;2064910;28;20042;-81
2022/03/03 00:39:32;;;;;;;6.88;2.65;;;;;;;9.90;70.56;100844.16;2061620;28;20626;-80
2022/03/03 00:40:55;;;;;;;7.25;2.60;;;;;;;9.93;70.88;100846.84;2061056;28;20062;-80
2022/03/03 00:42:18;;;;;;;4.95;1.95;;;;;;;9.95;70.74;100852.16;2055844;28;20091;-80
2022/03/03 00:43:40;;;;;;;11.40;2.38;;;;;;;9.93;70.14;100853.84;2062643;28;20088;-80
2022/03/03 00:45:05;;;;;;;6.40;2.03;;;;;;;9.92;69.28;100852.06;2068953;28;20038;-79
2022/03/03 00:46:28;;;;;;;4.95;2.00;;;;;;;9.88;69.02;100860.78;2069737;28;20053;-80
2022/03/03 00:47:50;;;;;;;4.53;1.90;;;;;;;9.86;69.31;100878.31;2067288;28;20111;-80
2022/03/03 00:49:13;;;;;;;8.10;2.70;;;;;;;9.84;69.26;100856.34;2064441;28;20140;-79
2022/03/03 00:50:34;;;;;;;10.95;2.50;;;;;;;9.83;69.72;100867.72;2059398;28;20320;-79
2022/03/03 00:51:57;;;;;;;7.68;2.63;;;;;;;9.80;69.47;100872.94;2061240;28;20065;-80
2022/03/03 00:53:19;;;;;;;6.75;2.00;;;;;;;9.80;68.89;100872.94;2063505;28;20046;-79
2022/03/03 00:54:40;;;;;;;3.58;2.03;;;;;;;9.78;68.71;100869.38;2066955;28;20062;-79
2022/03/03 00:56:03;;;;;;;11.57;2.28;;;;;;;9.76;68.64;100882.53;2072159;28;20046;-79
2022/03/03 00:57:25;;;;;;;5.60;2.60;;;;;;;9.76;68.70;100879.00;2057551;28;20039;-78
2022/03/03 00:58:47;;;;;;;5.35;1.80;;;;;;;9.74;68.31;100875.44;2068459;28;20083;-80
2022/03/03 01:00:12;;;;;;;8.40;2.50;;;;;;;9.72;68.56;100885.94;2068706;28;20054;-79
2022/03/03 01:01:33;;;;;;;9.15;2.58;;;;;;;9.69;69.05;100891.16;2061472;28;20089;-79
2022/03/03 01:02:56;;;;;;;8.63;2.53;;;;;;;9.68;69.17;100889.38;2068137;28;20419;-79
2022/03/03 01:04:19;;;;;;;7.68;3.17;;;;;;;9.68;69.31;100892.00;2071423;28;20079;-79
2022/03/03 01:05:41;;;;;;;7.40;2.20;;;;;;;9.66;69.11;100896.34;2067338;28;20061;-79
2022/03/03 01:07:07;;;;;;;4.50;2.03;;;;;;;9.68;69.55;100904.31;2064723;28;20034;-79
2022/03/03 01:08:30;;;;;;;12.50;2.72;;;;;;;9.69;69.49;100900.81;2063573;28;20050;-79
2022/03/03 01:09:51;;;;;;;9.27;2.45;;;;;;;9.73;69.47;100915.81;2063078;28;20089;-79
2022/03/03 01:11:14;;;;;;;5.28;2.10;;;;;;;9.74;69.48;100907.06;2071074;28;20061;-79
2022/03/03 01:12:35;;;;;;;10.80;2.30;;;;;;;9.75;69.80;100907.09;2057625;28;20374;-79
2022/03/03 01:13:57;;;;;;;10.85;2.88;;;;;;;9.78;69.50;100901.03;2053670;28;20423;-80
2022/03/03 01:15:22;;;;;;;6.28;2.50;;;;;;;9.81;69.50;100898.44;2064208;28;20142;-79
2022/03/03 01:16:45;;;;;;;4.60;2.22;;;;;;;9.82;69.23;100905.50;2059345;28;20539;-79
2022/03/03 01:18:07;;;;;;;4.57;2.35;;;;;;;9.83;68.74;100891.47;2070843;28;20038;-79
2022/03/03 01:19:30;;;;;;;6.50;1.85;;;;;;;9.86;69.20;100899.41;2057318;28;20524;-79
2022/03/03 01:20:54;;;;;;;4.60;1.60;;;;;;;9.89;69.52;100910.03;2066594;28;20038;-79
2022/03/03 01:22:16;;;;;;;6.00;2.22;;;;;;;9.91;68.78;100884.59;2060226;28;20070;-79
2022/03/03 01:23:38;;;;;;;4.75;2.25;;;;;;;9.90;68.11;100875.78;2067874;28;20060;-80
2022/03/03 01:25:01;;;;;;;4.97;2.10;;;;;;;9.92;67.73;100873.16;2071140;28;20389;-79
2022/03/03 01:26:24;;;;;;;4.00;1.77;;;;;;;9.93;68.09;100861.75;2071015;28;20096;-79
2022/03/03 01:27:45;;;;;;;10.88;2.35;;;;;;;9.93;68.08;100875.84;2067341;28;20054;-79
2022/03/03 01:29:08;;;;;;;4.78;2.42;;;;;;;9.95;68.47;100866.22;2068288;28;20523;-79
2022/03/03 01:30:32;;;;;;;6.90;2.40;;;;;;;10.00;68.86;100867.19;2068032;28;20487;-78
2022/03/03 01:31:55;;;;;;;5.35;2.03;;;;;;;9.99;68.58;100857.50;2063434;28;20043;-79
2022/03/03 01:33:17;;;;;;;4.72;1.98;;;;;;;9.98;68.28;100857.47;2076582;28;20042;-79
2022/03/03 01:34:39;;;;;;;16.60;1.85;;;;;;;9.98;67.97;100850.44;2073632;28;20092;-79
2022/03/03 01:36:01;;;;;;;9.02;1.75;;;;;;;9.94;67.23;100845.97;2065485;28;20125;-79
2022/03/03 01:37:23;;;;;;;6.60;2.20;;;;;;;9.96;67.96;100856.56;2070075;28;20037;-79
2022/03/03 01:38:46;;;;;;;4.22;2.22;;;;;;;9.94;67.86;100850.38;2072359;28;20055;-79
2022/03/03 01:40:10;;;;;;;4.60;2.28;;;;;;;9.93;68.43;100848.56;2071161;28;20423;-79
2022/03/03 01:41:34;;;;;;;8.18;2.28;;;;;;;9.94;68.81;100856.53;2062291;28;20050;-78
2022/03/03 01:42:56;;;;;;;5.68;2.65;;;;;;;9.92;68.97;100855.59;2070945;28;20040;-78
2022/03/03 01:44:19;;;;;;;4.05;2.20;;;;;;;9.92;68.66;100855.59;2065143;28;20050;-79
2022/03/03 01:45:43;;;;;;;8.90;2.53;;;;;;;9.93;68.55;100838.03;2062713;28;20043;-79
2022/03/03 01:47:15;;;;;;;8.40;2.67;;;;;;;9.95;68.82;100845.13;2062803;28;20054;-78
2022/03/03 01:48:37;;;;;;;7.45;2.55;;;;;;;9.92;68.86;100847.69;2062631;28;20133;-79
2022/03/03 01:50:00;;;;;;;10.60;3.38;;;;;;;9.92;69.02;100834.50;2068434;28;20042;-79
2022/03/03 01:51:23;;;;;;;6.88;2.22;;;;;;;9.93;68.92;100838.91;2070520;28;20041;-79
2022/03/03 01:52:46;;;;;;;7.18;2.58;;;;;;;9.93;69.20;100843.31;2059045;28;20173;-80
2022/03/03 01:54:08;;;;;;;12.00;2.85;;;;;;;9.90;68.91;100838.88;2068595;28;20088;-79
2022/03/03 01:55:31;;;;;;;5.00;2.42;;;;;;;9.91;68.84;100845.03;2057069;28;20137;-79
2022/03/03 01:56:53;;;;;;;7.25;2.60;;;;;;;9.90;68.32;100843.25;2076695;28;20049;-79
2022/03/03 01:58:15;;;;;;;18.08;3.90;;;;;;;9.90;68.74;100840.63;2060930;28;20465;-79
2022/03/03 01:59:37;;;;;;;6.93;2.80;;;;;;;9.90;68.77;100832.72;2060114;28;20046;-79
2022/03/03 02:01:01;;;;;;;14.27;2.30;;;;;;;9.87;68.61;100833.53;2062787;28;20042;-80
2022/03/03 02:02:26;;;;;;;5.43;2.00;;;;;;;9.84;68.80;100828.22;2062851;28;20424;-79
2022/03/03 02:03:48;;;;;;;10.63;4.03;;;;;;;9.69;69.24;100832.28;2064846;28;20093;-79
2022/03/03 02:05:09;;;;;;;6.45;3.00;;;;;;;9.78;69.22;100827.22;2064921;28;20181;-79
2022/03/03 02:06:32;;;;;;;9.93;3.33;;;;;;;9.78;69.46;100825.44;2068101;28;20083;-79
2022/03/03 02:07:55;;;;;;;11.95;4.30;;;;;;;9.78;69.28;100822.78;2069143;28;20048;-79
2022/03/03 02:09:17;;;;;;;7.40;2.67;;;;;;;9.78;69.09;100828.06;2070577;28;20080;-79
2022/03/03 02:10:40;;;;;;;10.15;2.67;;;;;;;9.78;68.85;100816.66;2056763;28;20183;-79
2022/03/03 02:12:02;;;;;;;9.57;3.30;;;;;;;9.78;69.07;100822.78;2068006;28;20576;-79
2022/03/03 02:13:24;;;;;;;;;;;;;;;9.77;68.33;100805.22;2065256;28;20046;-79
2022/03/03 02:14:48;;;;;;;10.13;3.50;;;;;;;9.73;68.53;100813.91;2068075;28;20016;-79
2022/03/03 02:16:13;;;;;;;9.07;2.55;;;;;;;9.71;67.83;100820.94;2062879;28;20435;-78
2022/03/03 02:17:34;;;;;;;9.60;3.45;;;;;;;9.67;68.11;100824.34;2062113;28;20408;-78
2022/03/03 02:18:56;;;;;;;9.68;2.80;;;;;;;9.66;68.02;100819.91;2059803;28;20038;-79
2022/03/03 02:20:22;;;;;;;6.65;3.30;;;;;;;9.67;67.94;100810.28;2068701;28;20057;-79
2022/03/03 02:21:45;;;;;;;5.93;2.20;;;;;;;9.66;67.94;100824.31;2065170;28;20192;-79
2022/03/03 02:23:08;;;;;;;9.23;3.28;;;;;;;9.67;68.41;100826.09;2054600;28;20041;-78
2022/03/03 02:24:29;;;;;;;7.03;2.47;;;;;;;9.66;67.90;100814.66;2069251;28;20108;-79
2022/03/03 02:25:52;;;;;;;3.38;2.03;;;;;;;9.66;68.38;100821.66;2068578;28;20072;-79
2022/03/03 02:27:13;;;;;;;9.20;2.97;;;;;;;9.67;68.46;100811.16;2062631;28;20100;-78
2022/03/03 02:28:35;;;;;;;4.68;2.25;;;;;;;9.68;68.45;100809.41;2068906;28;20048;-79
2022/03/03 02:29:59;;;;;;;5.85;2.50;;;;;;;9.73;68.30;100806.00;2070059;28;20388;-78
2022/03/03 02:31:20;;;;;;;9.95;2.90;;;;;;;9.76;68.17;100806.09;2070465;28;20057;-78
2022/03/03 02:32:44;;;;;;;8.55;2.72;;;;;;;9.76;68.13;100816.63;2069117;28;20045;-79
2022/03/03 02:34:06;;;;;;;5.03;2.13;;;;;;;9.76;68.56;100807.81;2064434;28;20052;-79
2022/03/03 02:35:30;;;;;;;6.35;2.58;;;;;;;9.79;68.54;100814.03;2063308;28;20042;-79
2022/03/03 02:36:52;;;;;;;6.78;2.28;;;;;;;9.79;68.45;100802.59;2064656;28;20467;-77
2022/03/03 02:38:15;;;;;;;6.15;2.30;;;;;;;9.79;68.15;100799.97;2073055;28;20050;-77
2022/03/03 02:39:37;;;;;;;5.93;2.35;;;;;;;9.82;68.29;100797.41;2062169;28;20562;-77
2022/03/03 02:41:00;;;;;;;8.18;2.70;;;;;;;9.82;68.59;100800.03;2065357;28;20419;-77
2022/03/03 02:42:23;;;;;;;5.28;1.75;;;;;;;9.82;68.31;100787.75;2061262;28;20142;-77
2022/03/03 02:43:44;;;;;;;5.80;2.70;;;;;;;9.82;68.30;100800.03;2063609;28;20081;-77
2022/03/03 02:45:07;;;;;;;10.85;3.40;;;;;;;9.84;68.80;100804.50;2062412;28;20042;-76
2022/03/03 02:46:29;;;;;;;8.63;2.72;;;;;;;9.85;68.88;100813.25;2078541;28;20043;-77
2022/03/03 02:47:52;;;;;;;15.13;3.13;;;;;;;9.87;69.03;100796.63;2067699;28;20133;-77
2022/03/03 02:49:15;;;;;;;6.53;3.03;;;;;;;9.88;68.97;100808.06;2054342;28;20046;-77
2022/03/03 02:50:39;;;;;;;4.82;2.30;;;;;;;9.89;68.84;100797.56;2066641;28;20072;-77
2022/03/03 02:52:01;;;;;;;5.72;2.65;;;;;;;9.88;68.57;100789.59;2070090;28;20444;-77
2022/03/03 02:53:24;;;;;;;5.38;2.72;;;;;;;9.87;68.32;100806.28;2057103;28;20089;-77
2022/03/03 02:54:46;;;;;;;4.25;2.55;;;;;;;9.87;68.35;100796.63;2070029;28;20103;-78
2022/03/03 02:56:10;;;;;;;10.30;2.83;;;;;;;9.90;68.73;100787.91;2059464;28;20042;-77
2022/03/03 02:59:12;;;;;;;6.95;2.75;;;;;;;9.92;68.94;100794.94;2072441;28;20448;-77
2022/03/03 03:00:39;;;;;;;6.30;2.15;;;;;;;9.95;69.05;100786.22;2061794;28;20736;-77
2022/03/03 03:02:01;;;;;;;3.60;1.83;;;;;;;9.95;68.48;100802.03;2067382;28;20297;-77
2022/03/03 03:03:24;;;;;;;4.15;2.10;;;;;;;9.95;68.52;100805.56;2057310;28;20102;-76
2022/03/03 03:04:45;;;;;;;12.95;2.97;;;;;;;9.94;68.66;100801.16;2060742;28;20061;-77
2022/03/03 03:06:12;;;;;;;6.00;2.28;;;;;;;9.95;68.23;100808.22;2064505;28;20108;-77
2022/03/03 03:07:35;;;;;;;7.45;3.10;;;;;;;9.97;68.64;100824.06;2063492;28;20055;-77
2022/03/03 03:08:57;;;;;;;5.57;2.50;;;;;;;9.97;69.03;100811.78;2061025;28;20042;-77
2022/03/03 03:10:20;;;;;;;4.93;2.40;;;;;;;9.98;68.49;100820.53;2067137;28;20116;-77
2022/03/03 03:11:43;;;;;;;4.85;2.10;;;;;;;9.97;68.88;100824.06;2070349;28;20054;-77
2022/03/03 03:13:06;;;;;;;7.88;2.78;;;;;;;9.97;69.49;100840.78;2064356;28;20142;-78
2022/03/03 03:14:28;;;;;;;9.70;3.13;;;;;;;9.94;70.24;100860.91;2070311;28;20451;-77
2022/03/03 03:15:51;;;;;;;8.50;2.50;;;;;;;9.89;70.72;100884.56;2062037;28;20085;-77
2022/03/03 03:17:12;;;;;;;5.95;2.33;;;;;;;9.78;71.42;100899.25;2055527;28;20046;-78
2022/03/03 03:18:34;;;;;;;9.35;3.00;;;;;;;9.58;72.77;100885.66;2067425;28;20108;-80
2022/03/03 03:19:56;;;;;;;7.53;2.95;;;;;;;9.41;74.12;100879.13;2056869;28;20444;-81
2022/03/03 03:21:20;;;;;;;5.97;3.10;;;;;;;9.30;75.29;100891.19;2075048;28;20041;-82
2022/03/03 03:22:41;;;;;;;5.65;2.97;;;;;;;9.17;75.93;100861.06;2068808;28;20074;-83
2022/03/03 03:24:05;;;;;;;7.03;2.78;;;;;;;9.13;76.27;100890.78;2067927;28;20069;-80
2022/03/03 03:25:26;;;;;;;9.23;4.15;;;;;;;9.10;76.68;100881.94;2070277;28;20044;-81
2022/03/03 03:26:48;;;;;;;5.40;3.42;;;;;;;9.09;77.13;100883.69;2061984;28;20101;-81
2022/03/03 03:28:11;;;;;;;11.57;3.97;;;;;;;9.10;77.46;100876.66;2067629;28;20046;-81
2022/03/03 03:29:33;;;;;;;6.25;3.20;;;;;;;9.09;77.46;100874.88;2056347;28;20117;-81
2022/03/03 03:30:55;;;;;;;8.55;3.50;;;;;;;9.09;77.44;100866.97;2057219;28;20094;-80
2022/03/03 03:32:18;;;;;;;10.25;4.32;;;;;;;9.05;77.65;100871.31;2060632;28;20050;-80
2022/03/03 03:33:40;;;;;;;7.70;3.78;;;;;;;9.01;77.58;100874.69;2055880;28;20043;-80
2022/03/03 03:35:02;;;;;;;8.63;3.05;;;;;;;8.96;78.06;100864.91;2075895;28;20042;-80
2022/03/03 03:36:26;;;;;;;10.68;3.95;;;;;;;8.92;78.32;100858.72;2072361;28;20049;-79
2022/03/03 03:37:49;;;;;;;9.18;3.10;;;;;;;8.90;78.74;100856.88;2072499;28;20618;-80
2022/03/03 03:39:10;;;;;;;8.60;4.22;;;;;;;8.95;79.12;100864.03;2072472;28;20041;-80
2022/03/03 03:40:33;;;;;;;10.65;3.85;;;;;;;8.97;79.14;100864.97;2053912;28;20062;-79
2022/03/03 03:41:54;;;;;;;11.68;4.30;;;;;;;9.00;79.20;100865.03;2061135;28;20039;-80
2022/03/03 03:43:17;;;;;;;10.73;4.18;;;;;;;9.03;79.10;100869.47;2066470;28;20512;-79
2022/03/03 03:44:39;;;;;;;7.63;3.95;;;;;;;9.03;78.98;100880.00;2069421;28;20530;-79
2022/03/03 03:46:02;;;;;;;8.63;3.28;;;;;;;9.01;79.02;100881.72;2054024;28;20079;-80
2022/03/03 03:47:23;;;;;;;5.15;2.67;;;;;;;8.96;79.08;100878.09;2059391;28;20548;-78
2022/03/03 03:48:46;;;;;;;7.18;2.88;;;;;;;8.94;79.15;100890.31;2059562;28;20113;-79
2022/03/03 03:50:09;;;;;;;6.93;2.67;;;;;;;8.92;79.04;100892.94;2056900;28;20034;-79
2022/03/03 03:51:33;;;;;;;5.22;2.50;;;;;;;8.89;79.24;100886.69;2066138;28;20610;-79
2022/03/03 03:52:56;;;;;;;8.00;3.25;;;;;;;8.86;79.11;100876.97;2070211;28;20124;-80
2022/03/03 03:54:17;;;;;;;9.13;3.63;;;;;;;8.84;79.17;100891.84;2064729;28;20432;-79
2022/03/03 03:55:40;;;;;;;5.85;2.88;;;;;;;8.83;79.25;100904.97;2061858;28;20050;-79
2022/03/03 03:57:02;;;;;;;9.52;3.38;;;;;;;8.85;79.37;100905.91;2061586;28;20408;-79
2022/03/03 03:58:25;;;;;;;6.93;2.70;;;;;;;8.86;79.42;100913.81;2066923;28;20500;-78
2022/03/03 03:59:47;;;;;;;7.13;3.60;;;;;;;8.85;79.62;100916.44;2070040;28;20179;-79
2022/03/03 04:01:10;;;;;;;7.07;4.07;;;;;;;8.87;79.56;100922.59;2065491;28;20412;-78
2022/03/03 04:02:31;;;;;;;6.65;3.13;;;;;;;8.86;79.58;100916.44;2070082;28;20114;-78
2022/03/03 04:03:54;;;;;;;15.07;4.20;;;;;;;8.89;79.89;100923.53;2057549;28;20484;-79
2022/03/03 04:05:15;;;;;;;10.02;3.47;;;;;;;8.93;79.95;100922.75;2058100;28;20144;-80
2022/03/03 04:06:40;;;;;;;6.63;3.38;;;;;;;8.97;80.01;100885.13;2061859;28;20046;-79
2022/03/03 04:08:02;;;;;;;7.50;3.40;;;;;;;8.98;80.08;100940.47;2059892;28;20421;-79
2022/03/03 04:09:24;;;;;;;7.93;2.03;;;;;;;8.99;80.28;100944.84;2053823;28;20105;-79
2022/03/03 04:10:47;;;;;;;6.18;2.20;;;;;;;9.02;80.14;100963.38;2053844;28;20516;-79
2022/03/03 04:12:11;;;;;;;7.35;3.75;;;;;;;9.07;80.34;100958.22;2061978;28;20062;-79
2022/03/03 04:13:34;;;;;;;9.75;3.22;;;;;;;9.08;80.47;100952.09;2062060;28;20074;-80
2022/03/03 04:14:56;;;;;;;9.75;3.10;;;;;;;9.09;80.64;100954.78;2065882;28;20042;-79
2022/03/03 04:16:18;;;;;;;6.70;3.47;;;;;;;9.13;80.57;100939.94;2061126;28;20086;-79
2022/03/03 04:17:41;;;;;;;7.05;3.75;;;;;;;9.12;80.16;100940.81;2067485;28;20037;-79
2022/03/03 04:19:04;;;;;;;5.82;3.03;;;;;;;9.11;80.45;100949.56;2068719;28;20053;-79
2022/03/03 04:20:27;;;;;;;7.97;2.35;;;;;;;9.10;80.41;100950.41;2062058;28;20082;-79
2022/03/03 04:21:51;;;;;;;10.57;3.60;;;;;;;9.12;80.26;100951.34;2056530;28;20061;-79
2022/03/03 04:23:16;;;;;;;7.00;3.22;;;;;;;9.11;80.47;100957.47;2044819;28;20051;-79
2022/03/03 04:24:39;;;;;;;10.30;3.28;;;;;;;9.14;80.53;100957.50;2058153;28;20046;-79
2022/03/03 04:26:01;;;;;;;6.53;3.42;;;;;;;9.14;80.32;100954.88;2053664;28;20034;-79
2022/03/03 04:27:24;;;;;;;11.90;3.00;;;;;;;9.14;80.63;100961.03;2075145;28;20481;-79
2022/03/03 04:28:47;;;;;;;5.30;2.58;;;;;;;9.15;80.43;100961.94;2058951;28;20133;-80
2022/03/03 04:30:11;;;;;;;6.03;3.40;;;;;;;9.16;80.40;100968.97;2066439;28;20116;-79
2022/03/03 04:31:33;;;;;;;7.97;2.13;;;;;;;9.15;80.34;100972.47;2062849;28;20617;-79
2022/03/03 04:32:56;;;;;;;6.72;2.97;;;;;;;9.13;80.47;100966.25;2058930;28;20058;-79
2022/03/03 04:34:17;;;;;;;7.35;2.72;;;;;;;9.15;80.38;100969.84;2057170;28;20436;-79
2022/03/03 04:35:40;;;;;;;9.30;3.53;;;;;;;9.13;80.53;100964.53;2059023;28;20054;-79
2022/03/03 04:37:04;;;;;;;8.82;2.90;;;;;;;9.11;80.07;100963.63;2061290;28;20050;-79
2022/03/03 04:38:27;;;;;;;9.07;4.07;;;;;;;9.10;80.29;100971.47;2067948;28;20483;-80
2022/03/03 04:39:49;;;;;;;9.85;3.67;;;;;;;9.09;80.43;100970.56;2061409;28;20389;-79
2022/03/03 04:41:12;;;;;;;11.30;4.28;;;;;;;9.11;80.44;100968.88;2056292;28;20332;-78
2022/03/03 04:42:34;;;;;;;8.23;3.30;;;;;;;9.13;80.31;100974.16;2057733;28;20047;-79
2022/03/03 04:43:57;;;;;;;7.97;3.38;;;;;;;9.14;80.54;100970.69;2037946;29;20047;-79
2022/03/03 04:45:19;;;;;;;8.80;3.00;;;;;;;9.15;80.56;100978.63;2047953;28;20069;-79
2022/03/03 04:46:42;;;;;;;11.45;4.32;;;;;;;9.17;80.63;100979.56;2059046;28;20050;-80
2022/03/03 04:48:05;;;;;;;10.70;4.53;;;;;;;9.20;80.66;100986.63;2045891;28;20130;-79
2022/03/03 04:49:28;;;;;;;7.32;3.42;;;;;;;9.22;80.48;100991.94;2058509;28;20048;-80
2022/03/03 04:50:50;;;;;;;7.20;3.00;;;;;;;9.20;80.66;100978.72;2052229;28;20055;-80
2022/03/03 04:52:14;;;;;;;8.45;3.20;;;;;;;9.24;80.60;100991.13;2048674;28;20039;-80
2022/03/03 04:53:36;;;;;;;8.48;3.13;;;;;;;9.23;80.63;100989.34;2061507;28;20072;-79
2022/03/03 04:54:58;;;;;;;8.15;2.67;;;;;;;9.24;80.60;100984.97;2060570;28;20057;-79
2022/03/03 04:56:21;;;;;;;5.47;2.63;;;;;;;9.24;80.66;100982.34;2045901;29;20043;-80
2022/03/03 04:57:43;;;;;;;9.55;2.50;;;;;;;9.22;80.55;100982.31;2051416;28;20501;-80
2022/03/03 04:59:05;;;;;;;6.50;2.97;;;;;;;9.22;80.55;100982.31;2053494;28;20039;-79
2022/03/03 05:00:28;;;;;;;7.35;3.08;;;;;;;9.21;80.72;100980.50;2040775;28;20573;-79
2022/03/03 05:01:51;;;;;;;7.65;3.17;;;;;;;9.23;80.70;100981.44;2051328;28;20374;-79
2022/03/03 05:03:12;;;;;;;7.35;2.90;;;;;;;9.25;80.74;100973.59;2048938;28;20520;-80
2022/03/03 05:04:35;;;;;;;10.65;2.97;;;;;;;9.27;80.79;100978.03;2059172;28;20125;-78
2022/03/03 05:05:58;;;;;;;5.57;2.35;;;;;;;9.29;80.56;100970.16;2049141;28;20054;-79
2022/03/03 05:07:22;;;;;;;5.53;2.38;;;;;;;9.31;80.55;100971.09;2047870;28;20430;-79
2022/03/03 05:08:44;;;;;;;4.97;2.70;;;;;;;9.31;80.77;100958.81;2067240;28;20185;-79
2022/03/03 05:10:08;;;;;;;2.67;1.48;;;;;;;9.34;80.57;100961.50;2058804;28;20679;-80
2022/03/03 05:11:30;;;;;;;6.20;2.50;;;;;;;9.36;80.59;100959.81;2069936;28;20050;-80
2022/03/03 05:12:53;;;;;;;8.30;2.63;;;;;;;9.39;80.03;100970.41;2051938;28;20043;-80
2022/03/03 05:14:16;;;;;;;8.15;2.63;;;;;;;9.43;80.26;100984.56;2059342;28;20046;-79
2022/03/03 05:15:38;;;;;;;4.10;2.42;;;;;;;9.48;80.21;100983.81;2068766;28;20033;-79
2022/03/03 05:17:00;;;;;;;6.70;2.60;;;;;;;9.53;80.29;100984.81;2066309;28;20532;-79
2022/03/03 05:18:22;;;;;;;6.22;2.78;;;;;;;9.58;80.46;100983.16;2061698;28;20154;-79
2022/03/03 05:19:45;;;;;;;8.18;2.85;;;;;;;9.62;80.46;100989.41;2052421;28;20047;-79
2022/03/03 05:21:08;;;;;;;7.38;2.53;;;;;;;9.64;80.45;100989.44;2061692;28;20392;-80
2022/03/03 05:22:32;;;;;;;9.35;4.00;;;;;;;9.67;80.42;100986.88;2043203;29;20082;-80
2022/03/03 05:23:55;;;;;;;11.75;5.40;;;;;;;9.66;80.49;100985.97;2056808;28;20125;-79
2022/03/03 05:25:17;;;;;;;8.10;3.30;;;;;;;9.69;80.60;100987.81;2061347;28;20453;-80
2022/03/03 05:26:40;;;;;;;10.07;4.05;;;;;;;9.71;80.79;100994.00;2053342;28;20055;-79
2022/03/03 05:28:01;;;;;;;6.97;2.28;;;;;;;9.72;80.96;101001.91;2050882;28;20039;-80
2022/03/03 05:29:23;;;;;;;10.93;3.78;;;;;;;9.73;80.80;100994.91;2053644;28;20038;-80
2022/03/03 05:30:46;;;;;;;7.68;3.15;;;;;;;9.74;80.62;101008.13;2053725;28;20085;-80
2022/03/03 05:32:09;;;;;;;4.78;2.47;;;;;;;9.73;80.77;101006.34;2045813;29;20035;-81
2022/03/03 05:33:33;;;;;;;5.40;3.50;;;;;;;9.72;80.61;100998.41;2048239;29;20063;-79
2022/03/03 05:34:56;;;;;;;11.50;3.58;;;;;;;9.69;80.57;101009.78;2050085;28;20038;-80
2022/03/03 05:36:18;;;;;;;5.47;2.50;;;;;;;9.68;80.51;101012.38;2058905;28;20451;-80
2022/03/03 05:37:45;;;;;;;8.68;3.47;;;;;;;9.73;80.45;101003.72;2060237;28;20154;-79
2022/03/03 05:39:09;;;;;;;4.80;2.72;;;;;;;9.76;80.74;101001.16;2062015;28;20046;-79
2022/03/03 05:40:32;;;;;;;10.00;3.92;;;;;;;9.77;80.63;101000.31;2048725;28;20051;-80
2022/03/03 05:41:56;;;;;;;5.57;2.00;;;;;;;9.79;80.76;100992.41;2053494;28;20055;-81
2022/03/03 05:43:18;;;;;;;8.32;3.10;;;;;;;9.80;80.60;100997.72;2059838;28;20038;-80
2022/03/03 05:44:41;;;;;;;4.97;3.28;;;;;;;9.82;80.38;100998.66;2057526;28;20371;-80
2022/03/03 05:46:05;;;;;;;5.93;3.20;;;;;;;9.83;80.67;101007.47;2063135;28;20120;-80
2022/03/03 05:47:28;;;;;;;7.70;3.40;;;;;;;9.86;80.78;101010.16;2058852;28;20105;-82
2022/03/03 05:48:51;;;;;;;8.32;3.25;;;;;;;9.88;80.84;101013.72;2063458;28;20053;-82
2022/03/03 05:50:14;;;;;;;6.45;3.00;;;;;;;9.90;80.97;100996.19;2054819;28;20139;-82
2022/03/03 05:51:37;;;;;;;6.57;2.40;;;;;;;9.90;81.17;101001.47;2058584;28;20719;-82
2022/03/03 05:53:01;;;;;;;11.18;4.03;;;;;;;9.90;81.06;101004.09;2073752;28;20053;-81
2022/03/03 05:54:24;;;;;;;5.82;4.10;;;;;;;9.91;81.39;100995.34;2055282;28;20042;-81
2022/03/03 05:55:49;;;;;;;6.47;2.97;;;;;;;9.92;81.48;100999.72;2065988;28;20057;-81
2022/03/03 05:57:15;;;;;;;8.23;3.17;;;;;;;9.95;81.58;100994.53;2064263;28;20050;-82
2022/03/03 05:58:42;;;;;;;17.55;7.05;;;;;;;9.97;81.42;101001.63;2071623;28;20141;-81
2022/03/03 06:00:08;;;;;;;39.70;12.05;;;;;;;9.97;81.40;100993.72;2059442;28;20050;-85
2022/03/03 06:01:37;;;;;;;18.15;6.65;;;;;;;9.96;81.60;101001.59;2067462;28;20093;-80
2022/03/03 06:03:03;;;;;;;11.50;4.93;;;;;;;9.98;81.59;100997.22;2063306;28;20599;-81
2022/03/03 06:04:29;;;;;;;8.15;3.17;;;;;;;9.97;81.50;101008.66;2058002;28;20047;-80
2022/03/03 06:05:54;;;;;;;10.38;4.03;;;;;;;9.96;81.44;101002.50;2064695;28;20046;-80
2022/03/03 06:07:25;;;;;;;8.00;3.40;;;;;;;9.97;81.18;101004.28;2073844;28;20064;-79
2022/03/03 06:08:57;;;;;;;6.55;3.90;;;;;;;9.99;81.59;101009.56;2071604;28;20046;-80
2022/03/03 06:10:23;;;;;;;5.57;3.58;;;;;;;10.01;81.33;101015.75;2072083;28;20089;-80
2022/03/03 06:11:48;;;;;;;9.25;4.85;;;;;;;10.03;81.46;101019.34;2070788;28;20061;-80
2022/03/03 06:13:17;;;;;;;6.38;3.10;;;;;;;10.04;81.18;101026.41;2060246;28;20100;-80
2022/03/03 06:14:42;;;;;;;6.70;3.08;;;;;;;10.07;81.20;101022.91;2061401;28;20503;-81
2022/03/03 06:16:05;;;;;;;7.45;3.60;;;;;;;10.23;81.13;101031.25;2065332;28;20136;-80
2022/03/03 06:17:27;;;;;;;15.32;4.55;;;;;;;10.38;81.29;101036.81;2067604;28;20056;-79
2022/03/03 06:18:51;;;;;;;9.27;5.13;;;;;;;10.48;81.19;101044.94;2059152;28;20142;-79
2022/03/03 06:20:14;;;;;;;11.38;5.28;;;;;;;10.51;81.30;101037.06;2056085;28;20043;-80
2022/03/03 06:21:37;;;;;;;8.23;3.83;;;;;;;10.49;81.48;101030.88;2070747;28;20106;-79
2022/03/03 06:22:59;;;;;;;8.52;4.05;;;;;;;10.48;81.18;101037.03;2054550;28;20077;-80
2022/03/03 06:24:24;;;;;;;9.30;4.88;;;;;;;10.52;81.27;101038.84;2052132;28;20050;-80
2022/03/03 06:25:47;;;;;;;9.00;3.83;;;;;;;10.51;80.87;101021.22;2053409;28;20058;-80
2022/03/03 06:27:10;;;;;;;6.03;2.70;;;;;;;10.54;80.94;101031.84;2052461;28;20073;-80
2022/03/03 06:28:34;;;;;;;8.85;3.63;;;;;;;10.57;80.68;101035.44;2067994;28;20112;-79
2022/03/03 06:29:57;;;;;;;7.97;4.18;;;;;;;10.61;80.78;101041.69;2062764;28;20062;-80
2022/03/03 06:31:19;;;;;;;10.98;3.53;;;;;;;10.62;80.82;101043.47;2068096;28;20442;-79